sensor_id;sensor_type;location;lat;lon;timestamp;temperature;humidity
67799;SHT30;54596;43.216;27.904;2023-05-10T00:00:47;8.97;84.82
67799;SHT30;54596;43.216;27.904;2023-05-10T00:03:12;8.87;85.07
67799;SHT30;54596;43.216;27.904;2023-05-10T00:05:37;8.86;85.06
67799;SHT30;54596;43.216;27.904;2023-05-10T00:08:03;8.82;85.48
67799;SHT30;54596;43.216;27.904;2023-05-10T00:10:28;8.79;85.53
67799;SHT30;54596;43.216;27.904;2023-05-10T00:12:54;8.75;85.97
67799;SHT30;54596;43.216;27.904;2023-05-10T00:15:20;8.71;86.26
67799;SHT30;54596;43.216;27.904;2023-05-10T00:17:45;8.69;86.24
67799;SHT30;54596;43.216;27.904;2023-05-10T00:20:11;8.75;86.13
67799;SHT30;54596;43.216;27.904;2023-05-10T00:22:36;8.69;86.47
67799;SHT30;54596;43.216;27.904;2023-05-10T00:25:02;8.64;86.86
67799;SHT30;54596;43.216;27.904;2023-05-10T00:27:27;8.62;86.89
67799;SHT30;54596;43.216;27.904;2023-05-10T00:29:53;8.56;87.39
67799;SHT30;54596;43.216;27.904;2023-05-10T00:32:18;8.55;87.31
67799;SHT30;54596;43.216;27.904;2023-05-10T00:34:44;8.55;87.40
67799;SHT30;54596;43.216;27.904;2023-05-10T00:37:09;8.51;87.50
67799;SHT30;54596;43.216;27.904;2023-05-10T00:39:35;8.49;87.25
67799;SHT30;54596;43.216;27.904;2023-05-10T00:42:00;8.44;87.35
67799;SHT30;54596;43.216;27.904;2023-05-10T00:44:26;8.45;87.63
67799;SHT30;54596;43.216;27.904;2023-05-10T00:46:52;8.42;87.44
67799;SHT30;54596;43.216;27.904;2023-05-10T00:49:17;8.47;87.49
67799;SHT30;54596;43.216;27.904;2023-05-10T00:51:44;8.48;87.34
67799;SHT30;54596;43.216;27.904;2023-05-10T00:54:11;8.48;87.26
67799;SHT30;54596;43.216;27.904;2023-05-10T00:56:39;8.54;87.11
67799;SHT30;54596;43.216;27.904;2023-05-10T00:59:05;8.59;86.93
67799;SHT30;54596;43.216;27.904;2023-05-10T01:01:31;8.65;86.63
67799;SHT30;54596;43.216;27.904;2023-05-10T01:03:57;8.68;86.79
67799;SHT30;54596;43.216;27.904;2023-05-10T01:06:23;8.69;86.78
67799;SHT30;54596;43.216;27.904;2023-05-10T01:08:49;8.76;86.40
67799;SHT30;54596;43.216;27.904;2023-05-10T01:11:15;8.80;86.56
67799;SHT30;54596;43.216;27.904;2023-05-10T01:13:42;8.86;86.38
67799;SHT30;54596;43.216;27.904;2023-05-10T01:16:08;8.86;86.30
67799;SHT30;54596;43.216;27.904;2023-05-10T01:18:40;8.83;86.30
67799;SHT30;54596;43.216;27.904;2023-05-10T01:33:11;8.72;86.74
67799;SHT30;54596;43.216;27.904;2023-05-10T01:36:05;8.68;86.61
67799;SHT30;54596;43.216;27.904;2023-05-10T01:38:46;8.64;86.81
67799;SHT30;54596;43.216;27.904;2023-05-10T01:41:27;8.64;86.91
67799;SHT30;54596;43.216;27.904;2023-05-10T01:44:29;8.65;87.08
67799;SHT30;54596;43.216;27.904;2023-05-10T01:47:08;8.66;87.06
67799;SHT30;54596;43.216;27.904;2023-05-10T01:49:49;8.58;87.47
67799;SHT30;54596;43.216;27.904;2023-05-10T01:52:22;8.52;87.54
67799;SHT30;54596;43.216;27.904;2023-05-10T01:55:06;8.58;87.67
67799;SHT30;54596;43.216;27.904;2023-05-10T01:57:35;8.51;87.83
67799;SHT30;54596;43.216;27.904;2023-05-10T02:00:04;8.45;87.88
67799;SHT30;54596;43.216;27.904;2023-05-10T02:02:36;8.47;88.04
67799;SHT30;54596;43.216;27.904;2023-05-10T02:05:04;8.45;87.99
67799;SHT30;54596;43.216;27.904;2023-05-10T02:07:32;8.44;88.07
67799;SHT30;54596;43.216;27.904;2023-05-10T02:09:58;8.44;87.97
67799;SHT30;54596;43.216;27.904;2023-05-10T02:12:24;8.47;88.02
67799;SHT30;54596;43.216;27.904;2023-05-10T02:14:53;8.52;87.99
67799;SHT30;54596;43.216;27.904;2023-05-10T02:17:19;8.45;88.14
67799;SHT30;54596;43.216;27.904;2023-05-10T02:19:47;8.44;88.12
67799;SHT30;54596;43.216;27.904;2023-05-10T02:22:13;8.48;88.11
67799;SHT30;54596;43.216;27.904;2023-05-10T02:24:41;8.44;88.17
67799;SHT30;54596;43.216;27.904;2023-05-10T02:27:07;8.36;88.40
67799;SHT30;54596;43.216;27.904;2023-05-10T02:29:34;8.37;88.18
67799;SHT30;54596;43.216;27.904;2023-05-10T02:32:01;8.40;88.20
67799;SHT30;54596;43.216;27.904;2023-05-10T02:34:27;8.41;88.13
67799;SHT30;54596;43.216;27.904;2023-05-10T02:36:53;8.36;88.14
67799;SHT30;54596;43.216;27.904;2023-05-10T02:39:21;8.34;88.22
67799;SHT30;54596;43.216;27.904;2023-05-10T02:41:48;8.31;88.36
67799;SHT30;54596;43.216;27.904;2023-05-10T02:44:20;8.30;88.54
67799;SHT30;54596;43.216;27.904;2023-05-10T02:46:47;8.28;88.55
67799;SHT30;54596;43.216;27.904;2023-05-10T02:49:13;8.30;88.41
67799;SHT30;54596;43.216;27.904;2023-05-10T02:51:47;8.26;88.57
67799;SHT30;54596;43.216;27.904;2023-05-10T02:54:19;8.28;88.44
67799;SHT30;54596;43.216;27.904;2023-05-10T02:56:59;8.33;88.38
67799;SHT30;54596;43.216;27.904;2023-05-10T02:59:26;8.26;88.30
67799;SHT30;54596;43.216;27.904;2023-05-10T03:01:52;8.33;88.32
67799;SHT30;54596;43.216;27.904;2023-05-10T03:04:17;8.37;88.19
67799;SHT30;54596;43.216;27.904;2023-05-10T03:06:43;8.36;88.08
67799;SHT30;54596;43.216;27.904;2023-05-10T03:09:09;8.38;88.49
67799;SHT30;54596;43.216;27.904;2023-05-10T03:14:34;8.44;88.35
67799;SHT30;54596;43.216;27.904;2023-05-10T03:19:58;8.54;87.89
67799;SHT30;54596;43.216;27.904;2023-05-10T03:22:36;8.55;87.74
67799;SHT30;54596;43.216;27.904;2023-05-10T03:25:05;8.64;87.40
67799;SHT30;54596;43.216;27.904;2023-05-10T03:27:32;8.69;87.17
67799;SHT30;54596;43.216;27.904;2023-05-10T03:29:57;8.68;87.24
67799;SHT30;54596;43.216;27.904;2023-05-10T03:32:23;8.73;87.10
67799;SHT30;54596;43.216;27.904;2023-05-10T03:34:51;8.73;87.20
67799;SHT30;54596;43.216;27.904;2023-05-10T03:37:17;8.79;87.12
67799;SHT30;54596;43.216;27.904;2023-05-10T03:39:42;8.87;86.94
67799;SHT30;54596;43.216;27.904;2023-05-10T03:42:08;8.96;86.92
67799;SHT30;54596;43.216;27.904;2023-05-10T03:44:37;9.10;86.41
67799;SHT30;54596;43.216;27.904;2023-05-10T03:47:03;9.14;86.09
67799;SHT30;54596;43.216;27.904;2023-05-10T03:49:29;9.25;85.78
67799;SHT30;54596;43.216;27.904;2023-05-10T03:51:54;9.72;84.96
67799;SHT30;54596;43.216;27.904;2023-05-10T03:54:20;10.73;82.15
67799;SHT30;54596;43.216;27.904;2023-05-10T03:56:45;11.43;79.65
67799;SHT30;54596;43.216;27.904;2023-05-10T03:59:13;11.84;78.49
67799;SHT30;54596;43.216;27.904;2023-05-10T04:01:38;12.25;76.64
67799;SHT30;54596;43.216;27.904;2023-05-10T04:04:04;11.86;78.13
67799;SHT30;54596;43.216;27.904;2023-05-10T04:06:29;12.00;78.23
67799;SHT30;54596;43.216;27.904;2023-05-10T04:08:54;12.05;77.62
67799;SHT30;54596;43.216;27.904;2023-05-10T04:11:20;11.98;77.87
67799;SHT30;54596;43.216;27.904;2023-05-10T04:13:47;11.84;78.25
67799;SHT30;54596;43.216;27.904;2023-05-10T04:16:12;12.00;77.97
67799;SHT30;54596;43.216;27.904;2023-05-10T04:18:38;11.94;77.82
67799;SHT30;54596;43.216;27.904;2023-05-10T04:21:04;12.10;77.89
67799;SHT30;54596;43.216;27.904;2023-05-10T04:23:35;12.14;77.73
67799;SHT30;54596;43.216;27.904;2023-05-10T04:26:01;12.24;77.28
67799;SHT30;54596;43.216;27.904;2023-05-10T04:28:27;12.35;77.20
67799;SHT30;54596;43.216;27.904;2023-05-10T04:30:52;12.45;77.00
67799;SHT30;54596;43.216;27.904;2023-05-10T04:33:18;12.70;76.56
67799;SHT30;54596;43.216;27.904;2023-05-10T04:35:47;13.11;75.36
67799;SHT30;54596;43.216;27.904;2023-05-10T04:38:12;13.55;74.13
67799;SHT30;54596;43.216;27.904;2023-05-10T04:40:38;13.60;73.69
67799;SHT30;54596;43.216;27.904;2023-05-10T04:43:03;13.62;73.98
67799;SHT30;54596;43.216;27.904;2023-05-10T04:45:29;14.00;72.77
67799;SHT30;54596;43.216;27.904;2023-05-10T04:47:54;14.25;72.76
67799;SHT30;54596;43.216;27.904;2023-05-10T04:50:20;14.47;72.08
67799;SHT30;54596;43.216;27.904;2023-05-10T04:52:45;14.32;72.23
67799;SHT30;54596;43.216;27.904;2023-05-10T04:55:11;13.88;73.42
67799;SHT30;54596;43.216;27.904;2023-05-10T04:57:36;13.98;73.59
67799;SHT30;54596;43.216;27.904;2023-05-10T05:00:02;14.47;71.89
67799;SHT30;54596;43.216;27.904;2023-05-10T05:02:28;15.36;70.56
67799;SHT30;54596;43.216;27.904;2023-05-10T05:04:55;15.18;69.78
67799;SHT30;54596;43.216;27.904;2023-05-10T05:07:21;15.84;68.27
67799;SHT30;54596;43.216;27.904;2023-05-10T05:09:47;16.34;66.91
67799;SHT30;54596;43.216;27.904;2023-05-10T05:12:13;16.47;65.67
67799;SHT30;54596;43.216;27.904;2023-05-10T05:14:39;16.55;65.73
67799;SHT30;54596;43.216;27.904;2023-05-10T05:17:05;17.29;63.87
67799;SHT30;54596;43.216;27.904;2023-05-10T05:19:31;18.22;59.96
67799;SHT30;54596;43.216;27.904;2023-05-10T05:21:56;19.64;57.41
67799;SHT30;54596;43.216;27.904;2023-05-10T05:24:22;20.61;55.44
67799;SHT30;54596;43.216;27.904;2023-05-10T05:26:47;20.12;54.75
67799;SHT30;54596;43.216;27.904;2023-05-10T05:29:13;21.03;53.92
67799;SHT30;54596;43.216;27.904;2023-05-10T05:31:38;21.46;52.33
67799;SHT30;54596;43.216;27.904;2023-05-10T05:34:04;21.86;52.22
67799;SHT30;54596;43.216;27.904;2023-05-10T05:36:29;21.05;52.29
67799;SHT30;54596;43.216;27.904;2023-05-10T05:38:56;20.15;54.11
67799;SHT30;54596;43.216;27.904;2023-05-10T05:41:22;20.44;55.33
67799;SHT30;54596;43.216;27.904;2023-05-10T05:43:49;22.24;51.33
67799;SHT30;54596;43.216;27.904;2023-05-10T05:46:14;22.68;50.81
67799;SHT30;54596;43.216;27.904;2023-05-10T05:48:40;21.16;52.45
67799;SHT30;54596;43.216;27.904;2023-05-10T05:51:05;21.22;52.50
67799;SHT30;54596;43.216;27.904;2023-05-10T05:53:31;21.22;51.50
67799;SHT30;54596;43.216;27.904;2023-05-10T05:55:58;22.02;50.61
67799;SHT30;54596;43.216;27.904;2023-05-10T05:58:24;21.74;50.60
67799;SHT30;54596;43.216;27.904;2023-05-10T06:00:50;22.12;50.74
67799;SHT30;54596;43.216;27.904;2023-05-10T06:03:17;22.43;49.71
67799;SHT30;54596;43.216;27.904;2023-05-10T06:05:43;23.05;49.48
67799;SHT30;54596;43.216;27.904;2023-05-10T06:08:09;22.26;48.66
67799;SHT30;54596;43.216;27.904;2023-05-10T06:10:35;22.45;49.69
67799;SHT30;54596;43.216;27.904;2023-05-10T06:13:00;23.09;48.50
67799;SHT30;54596;43.216;27.904;2023-05-10T06:15:26;23.55;47.57
67799;SHT30;54596;43.216;27.904;2023-05-10T06:17:52;24.86;45.88
67799;SHT30;54596;43.216;27.904;2023-05-10T06:20:18;23.65;47.21
67799;SHT30;54596;43.216;27.904;2023-05-10T06:22:43;22.89;47.76
67799;SHT30;54596;43.216;27.904;2023-05-10T06:25:09;21.51;51.60
67799;SHT30;54596;43.216;27.904;2023-05-10T06:27:35;21.61;51.15
67799;SHT30;54596;43.216;27.904;2023-05-10T06:30:01;20.13;53.39
67799;SHT30;54596;43.216;27.904;2023-05-10T06:32:27;20.72;52.56
67799;SHT30;54596;43.216;27.904;2023-05-10T06:34:53;21.36;50.72
67799;SHT30;54596;43.216;27.904;2023-05-10T06:37:18;21.24;51.17
67799;SHT30;54596;43.216;27.904;2023-05-10T06:39:44;21.64;50.02
67799;SHT30;54596;43.216;27.904;2023-05-10T06:42:09;21.61;50.14
67799;SHT30;54596;43.216;27.904;2023-05-10T06:44:35;20.32;51.44
67799;SHT30;54596;43.216;27.904;2023-05-10T06:47:00;19.36;54.46
67799;SHT30;54596;43.216;27.904;2023-05-10T06:49:26;21.14;51.81
67799;SHT30;54596;43.216;27.904;2023-05-10T06:51:51;22.45;48.78
67799;SHT30;54596;43.216;27.904;2023-05-10T06:54:17;19.68;52.55
67799;SHT30;54596;43.216;27.904;2023-05-10T06:56:43;19.60;53.76
67799;SHT30;54596;43.216;27.904;2023-05-10T06:59:08;21.23;50.54
67799;SHT30;54596;43.216;27.904;2023-05-10T07:01:34;22.14;49.54
67799;SHT30;54596;43.216;27.904;2023-05-10T07:04:00;21.14;50.42
67799;SHT30;54596;43.216;27.904;2023-05-10T07:06:25;19.22;54.17
67799;SHT30;54596;43.216;27.904;2023-05-10T07:08:51;19.30;53.95
67799;SHT30;54596;43.216;27.904;2023-05-10T07:11:16;19.55;52.33
67799;SHT30;54596;43.216;27.904;2023-05-10T07:13:42;20.10;51.87
67799;SHT30;54596;43.216;27.904;2023-05-10T07:16:09;19.34;52.74
67799;SHT30;54596;43.216;27.904;2023-05-10T07:18:35;19.58;53.14
67799;SHT30;54596;43.216;27.904;2023-05-10T07:21:01;17.69;56.77
67799;SHT30;54596;43.216;27.904;2023-05-10T07:23:27;16.81;59.29
67799;SHT30;54596;43.216;27.904;2023-05-10T07:25:53;16.85;59.83
67799;SHT30;54596;43.216;27.904;2023-05-10T07:28:19;17.94;59.68
67799;SHT30;54596;43.216;27.904;2023-05-10T07:30:44;18.84;56.11
67799;SHT30;54596;43.216;27.904;2023-05-10T07:33:12;18.89;55.94
67799;SHT30;54596;43.216;27.904;2023-05-10T07:35:38;17.47;59.50
67799;SHT30;54596;43.216;27.904;2023-05-10T07:38:03;16.87;61.59
67799;SHT30;54596;43.216;27.904;2023-05-10T07:40:29;18.09;59.65
67799;SHT30;54596;43.216;27.904;2023-05-10T07:42:55;17.01;61.40
67799;SHT30;54596;43.216;27.904;2023-05-10T07:45:20;16.33;64.09
67799;SHT30;54596;43.216;27.904;2023-05-10T07:47:46;16.23;64.51
67799;SHT30;54596;43.216;27.904;2023-05-10T07:50:11;16.19;64.73
67799;SHT30;54596;43.216;27.904;2023-05-10T07:52:37;16.82;63.20
67799;SHT30;54596;43.216;27.904;2023-05-10T07:55:02;17.33;61.92
67799;SHT30;54596;43.216;27.904;2023-05-10T07:57:28;16.22;65.39
67799;SHT30;54596;43.216;27.904;2023-05-10T07:59:53;15.64;66.47
67799;SHT30;54596;43.216;27.904;2023-05-10T08:02:19;15.61;67.23
67799;SHT30;54596;43.216;27.904;2023-05-10T08:04:44;16.68;65.31
67799;SHT30;54596;43.216;27.904;2023-05-10T08:07:10;16.49;64.79
67799;SHT30;54596;43.216;27.904;2023-05-10T08:09:36;16.95;63.91
67799;SHT30;54596;43.216;27.904;2023-05-10T08:12:01;15.94;66.72
67799;SHT30;54596;43.216;27.904;2023-05-10T08:14:28;16.16;66.38
67799;SHT30;54596;43.216;27.904;2023-05-10T08:16:54;17.88;60.58
67799;SHT30;54596;43.216;27.904;2023-05-10T08:19:19;18.13;59.35
67799;SHT30;54596;43.216;27.904;2023-05-10T08:21:47;17.67;61.12
67799;SHT30;54596;43.216;27.904;2023-05-10T08:24:12;17.85;60.64
67799;SHT30;54596;43.216;27.904;2023-05-10T08:26:38;17.02;64.16
67799;SHT30;54596;43.216;27.904;2023-05-10T08:29:03;16.96;64.02
67799;SHT30;54596;43.216;27.904;2023-05-10T08:31:29;16.39;65.75
67799;SHT30;54596;43.216;27.904;2023-05-10T08:33:55;16.06;65.27
67799;SHT30;54596;43.216;27.904;2023-05-10T08:36:20;16.98;63.05
67799;SHT30;54596;43.216;27.904;2023-05-10T08:38:52;17.61;63.14
67799;SHT30;54596;43.216;27.904;2023-05-10T08:41:22;16.42;64.07
67799;SHT30;54596;43.216;27.904;2023-05-10T08:43:50;16.91;64.95
67799;SHT30;54596;43.216;27.904;2023-05-10T08:46:18;16.85;64.72
67799;SHT30;54596;43.216;27.904;2023-05-10T08:48:48;16.73;65.60
67799;SHT30;54596;43.216;27.904;2023-05-10T08:51:18;16.91;65.51
67799;SHT30;54596;43.216;27.904;2023-05-10T08:53:45;16.91;64.86
67799;SHT30;54596;43.216;27.904;2023-05-10T08:56:11;16.82;65.41
67799;SHT30;54596;43.216;27.904;2023-05-10T08:58:37;16.92;64.56
67799;SHT30;54596;43.216;27.904;2023-05-10T09:01:03;16.64;64.83
67799;SHT30;54596;43.216;27.904;2023-05-10T09:03:30;16.33;66.70
67799;SHT30;54596;43.216;27.904;2023-05-10T09:05:55;16.21;67.16
67799;SHT30;54596;43.216;27.904;2023-05-10T09:08:23;16.04;67.53
67799;SHT30;54596;43.216;27.904;2023-05-10T09:10:51;16.12;66.49
67799;SHT30;54596;43.216;27.904;2023-05-10T09:13:17;16.08;67.55
67799;SHT30;54596;43.216;27.904;2023-05-10T09:15:43;15.71;68.82
67799;SHT30;54596;43.216;27.904;2023-05-10T09:18:09;15.71;68.64
67799;SHT30;54596;43.216;27.904;2023-05-10T09:20:35;15.71;68.48
67799;SHT30;54596;43.216;27.904;2023-05-10T09:23:00;15.57;69.16
67799;SHT30;54596;43.216;27.904;2023-05-10T09:25:27;15.50;68.46
67799;SHT30;54596;43.216;27.904;2023-05-10T09:27:53;15.77;68.49
67799;SHT30;54596;43.216;27.904;2023-05-10T09:30:29;15.36;69.00
67799;SHT30;54596;43.216;27.904;2023-05-10T09:32:56;15.43;67.85
67799;SHT30;54596;43.216;27.904;2023-05-10T09:35:24;15.24;68.11
67799;SHT30;54596;43.216;27.904;2023-05-10T09:37:52;15.16;68.85
67799;SHT30;54596;43.216;27.904;2023-05-10T09:40:23;14.76;68.10
67799;SHT30;54596;43.216;27.904;2023-05-10T09:43:04;14.79;68.14
67799;SHT30;54596;43.216;27.904;2023-05-10T09:45:32;14.91;68.44
67799;SHT30;54596;43.216;27.904;2023-05-10T09:47:59;14.99;68.36
67799;SHT30;54596;43.216;27.904;2023-05-10T09:50:26;14.77;67.66
67799;SHT30;54596;43.216;27.904;2023-05-10T09:52:56;14.80;67.13
67799;SHT30;54596;43.216;27.904;2023-05-10T09:58:05;15.05;66.12
67799;SHT30;54596;43.216;27.904;2023-05-10T10:00:39;14.99;65.84
67799;SHT30;54596;43.216;27.904;2023-05-10T10:03:04;15.02;66.87
67799;SHT30;54596;43.216;27.904;2023-05-10T10:05:35;15.24;67.26
67799;SHT30;54596;43.216;27.904;2023-05-10T10:08:03;15.39;66.99
67799;SHT30;54596;43.216;27.904;2023-05-10T10:10:29;15.32;67.30
67799;SHT30;54596;43.216;27.904;2023-05-10T10:12:55;14.87;67.67
67799;SHT30;54596;43.216;27.904;2023-05-10T10:15:21;15.11;67.26
67799;SHT30;54596;43.216;27.904;2023-05-10T10:17:48;15.15;67.26
67799;SHT30;54596;43.216;27.904;2023-05-10T10:20:15;15.21;66.85
67799;SHT30;54596;43.216;27.904;2023-05-10T10:22:41;15.25;66.03
67799;SHT30;54596;43.216;27.904;2023-05-10T10:25:07;15.25;65.61
67799;SHT30;54596;43.216;27.904;2023-05-10T10:35:30;15.24;64.72
67799;SHT30;54596;43.216;27.904;2023-05-10T10:37:56;15.18;65.17
67799;SHT30;54596;43.216;27.904;2023-05-10T10:40:26;15.21;64.96
67799;SHT30;54596;43.216;27.904;2023-05-10T10:42:52;15.25;65.92
67799;SHT30;54596;43.216;27.904;2023-05-10T10:45:19;15.21;66.02
67799;SHT30;54596;43.216;27.904;2023-05-10T10:47:45;15.08;66.64
67799;SHT30;54596;43.216;27.904;2023-05-10T10:50:11;14.80;66.38
67799;SHT30;54596;43.216;27.904;2023-05-10T10:52:45;14.97;64.68
67799;SHT30;54596;43.216;27.904;2023-05-10T10:55:12;15.32;64.88
67799;SHT30;54596;43.216;27.904;2023-05-10T10:57:54;15.60;65.10
67799;SHT30;54596;43.216;27.904;2023-05-10T11:03:11;15.31;66.49
67799;SHT30;54596;43.216;27.904;2023-05-10T11:05:45;15.67;65.68
67799;SHT30;54596;43.216;27.904;2023-05-10T11:08:26;15.57;64.92
67799;SHT30;54596;43.216;27.904;2023-05-10T11:13:48;15.05;66.23
67799;SHT30;54596;43.216;27.904;2023-05-10T11:16:16;15.18;66.46
67799;SHT30;54596;43.216;27.904;2023-05-10T11:18:53;15.35;63.70
67799;SHT30;54596;43.216;27.904;2023-05-10T11:21:19;15.08;66.46
67799;SHT30;54596;43.216;27.904;2023-05-10T11:23:58;15.11;67.23
67799;SHT30;54596;43.216;27.904;2023-05-10T11:26:29;14.79;67.28
67799;SHT30;54596;43.216;27.904;2023-05-10T11:28:55;14.76;67.87
67799;SHT30;54596;43.216;27.904;2023-05-10T11:31:21;14.99;67.39
67799;SHT30;54596;43.216;27.904;2023-05-10T11:33:53;14.87;67.22
67799;SHT30;54596;43.216;27.904;2023-05-10T11:36:32;14.80;67.78
67799;SHT30;54596;43.216;27.904;2023-05-10T11:38:58;14.77;67.57
67799;SHT30;54596;43.216;27.904;2023-05-10T11:41:24;14.95;66.60
67799;SHT30;54596;43.216;27.904;2023-05-10T11:43:53;14.85;66.97
67799;SHT30;54596;43.216;27.904;2023-05-10T11:46:20;14.59;68.18
67799;SHT30;54596;43.216;27.904;2023-05-10T11:48:48;14.52;68.40
67799;SHT30;54596;43.216;27.904;2023-05-10T11:51:15;14.52;68.11
67799;SHT30;54596;43.216;27.904;2023-05-10T11:53:41;14.25;69.00
67799;SHT30;54596;43.216;27.904;2023-05-10T11:56:08;14.19;68.40
67799;SHT30;54596;43.216;27.904;2023-05-10T11:58:35;14.12;68.95
67799;SHT30;54596;43.216;27.904;2023-05-10T12:01:01;14.19;68.54
67799;SHT30;54596;43.216;27.904;2023-05-10T12:03:28;14.36;68.75
67799;SHT30;54596;43.216;27.904;2023-05-10T12:05:57;14.32;68.16
67799;SHT30;54596;43.216;27.904;2023-05-10T12:08:25;14.33;68.47
67799;SHT30;54596;43.216;27.904;2023-05-10T12:10:53;14.46;67.99
67799;SHT30;54596;43.216;27.904;2023-05-10T12:13:19;14.53;67.52
67799;SHT30;54596;43.216;27.904;2023-05-10T12:15:45;14.32;68.03
67799;SHT30;54596;43.216;27.904;2023-05-10T12:18:14;14.07;69.37
67799;SHT30;54596;43.216;27.904;2023-05-10T12:20:40;14.24;68.82
67799;SHT30;54596;43.216;27.904;2023-05-10T12:23:08;14.07;68.27
67799;SHT30;54596;43.216;27.904;2023-05-10T12:25:36;14.05;68.67
67799;SHT30;54596;43.216;27.904;2023-05-10T12:28:03;14.14;68.73
67799;SHT30;54596;43.216;27.904;2023-05-10T12:30:33;14.01;69.18
67799;SHT30;54596;43.216;27.904;2023-05-10T12:33:17;13.93;70.03
67799;SHT30;54596;43.216;27.904;2023-05-10T12:35:47;13.98;69.14
67799;SHT30;54596;43.216;27.904;2023-05-10T12:40:50;13.97;69.36
67799;SHT30;54596;43.216;27.904;2023-05-10T12:43:15;13.80;69.66
67799;SHT30;54596;43.216;27.904;2023-05-10T12:45:41;13.91;69.35
67799;SHT30;54596;43.216;27.904;2023-05-10T12:48:06;13.78;68.65
67799;SHT30;54596;43.216;27.904;2023-05-10T12:50:32;13.85;69.50
67799;SHT30;54596;43.216;27.904;2023-05-10T12:52:57;13.84;69.20
67799;SHT30;54596;43.216;27.904;2023-05-10T12:55:23;13.57;69.27
67799;SHT30;54596;43.216;27.904;2023-05-10T12:57:48;13.53;69.39
67799;SHT30;54596;43.216;27.904;2023-05-10T13:00:14;13.60;69.62
67799;SHT30;54596;43.216;27.904;2023-05-10T13:02:40;13.56;69.15
67799;SHT30;54596;43.216;27.904;2023-05-10T13:05:05;13.67;69.22
67799;SHT30;54596;43.216;27.904;2023-05-10T13:07:31;13.71;69.19
67799;SHT30;54596;43.216;27.904;2023-05-10T13:09:57;13.66;68.60
67799;SHT30;54596;43.216;27.904;2023-05-10T13:12:22;13.74;68.93
67799;SHT30;54596;43.216;27.904;2023-05-10T13:14:47;13.81;69.02
67799;SHT30;54596;43.216;27.904;2023-05-10T13:17:13;13.84;69.37
67799;SHT30;54596;43.216;27.904;2023-05-10T13:19:38;13.73;70.30
67799;SHT30;54596;43.216;27.904;2023-05-10T13:22:04;13.78;70.50
67799;SHT30;54596;43.216;27.904;2023-05-10T13:24:30;13.57;71.30
67799;SHT30;54596;43.216;27.904;2023-05-10T13:26:56;13.53;71.18
67799;SHT30;54596;43.216;27.904;2023-05-10T13:29:21;13.59;71.15
67799;SHT30;54596;43.216;27.904;2023-05-10T13:31:47;13.59;70.73
67799;SHT30;54596;43.216;27.904;2023-05-10T13:34:13;13.70;70.48
67799;SHT30;54596;43.216;27.904;2023-05-10T13:36:38;13.53;70.43
67799;SHT30;54596;43.216;27.904;2023-05-10T13:39:04;13.57;71.08
67799;SHT30;54596;43.216;27.904;2023-05-10T13:41:30;13.39;71.05
67799;SHT30;54596;43.216;27.904;2023-05-10T13:43:56;13.57;70.00
67799;SHT30;54596;43.216;27.904;2023-05-10T13:46:21;13.50;70.65
67799;SHT30;54596;43.216;27.904;2023-05-10T13:48:47;13.46;71.10
67799;SHT30;54596;43.216;27.904;2023-05-10T13:51:12;13.43;71.02
67799;SHT30;54596;43.216;27.904;2023-05-10T13:53:38;13.36;70.88
67799;SHT30;54596;43.216;27.904;2023-05-10T13:56:38;13.34;71.21
67799;SHT30;54596;43.216;27.904;2023-05-10T13:59:03;13.35;71.48
67799;SHT30;54596;43.216;27.904;2023-05-10T14:01:29;13.39;71.62
67799;SHT30;54596;43.216;27.904;2023-05-10T14:03:54;13.39;70.99
67799;SHT30;54596;43.216;27.904;2023-05-10T14:06:20;13.29;70.61
67799;SHT30;54596;43.216;27.904;2023-05-10T14:08:45;13.35;70.41
67799;SHT30;54596;43.216;27.904;2023-05-10T14:11:11;13.38;70.21
67799;SHT30;54596;43.216;27.904;2023-05-10T14:13:36;13.36;70.02
67799;SHT30;54596;43.216;27.904;2023-05-10T14:16:02;13.39;70.16
67799;SHT30;54596;43.216;27.904;2023-05-10T14:18:31;13.25;69.90
67799;SHT30;54596;43.216;27.904;2023-05-10T14:20:57;13.19;70.15
67799;SHT30;54596;43.216;27.904;2023-05-10T14:23:23;13.10;70.38
67799;SHT30;54596;43.216;27.904;2023-05-10T14:25:53;13.10;70.08
67799;SHT30;54596;43.216;27.904;2023-05-10T14:28:19;13.16;70.21
67799;SHT30;54596;43.216;27.904;2023-05-10T14:30:46;13.32;70.11
67799;SHT30;54596;43.216;27.904;2023-05-10T14:33:12;13.29;69.96
67799;SHT30;54596;43.216;27.904;2023-05-10T14:35:38;13.12;70.24
67799;SHT30;54596;43.216;27.904;2023-05-10T14:38:04;13.16;70.93
67799;SHT30;54596;43.216;27.904;2023-05-10T14:40:29;13.23;69.61
67799;SHT30;54596;43.216;27.904;2023-05-10T14:42:55;13.22;69.13
67799;SHT30;54596;43.216;27.904;2023-05-10T14:45:21;13.14;70.25
67799;SHT30;54596;43.216;27.904;2023-05-10T14:47:47;13.18;70.42
67799;SHT30;54596;43.216;27.904;2023-05-10T14:50:13;13.14;70.89
67799;SHT30;54596;43.216;27.904;2023-05-10T14:56:00;13.10;70.69
67799;SHT30;54596;43.216;27.904;2023-05-10T14:58:47;12.95;70.83
67799;SHT30;54596;43.216;27.904;2023-05-10T15:01:12;12.90;72.26
67799;SHT30;54596;43.216;27.904;2023-05-10T15:03:38;12.94;73.03
67799;SHT30;54596;43.216;27.904;2023-05-10T15:06:04;12.97;72.95
67799;SHT30;54596;43.216;27.904;2023-05-10T15:08:29;12.98;73.15
67799;SHT30;54596;43.216;27.904;2023-05-10T15:10:55;12.95;72.95
67799;SHT30;54596;43.216;27.904;2023-05-10T15:13:21;12.88;73.08
67799;SHT30;54596;43.216;27.904;2023-05-10T15:15:46;12.90;72.89
67799;SHT30;54596;43.216;27.904;2023-05-10T15:18:12;12.97;72.36
67799;SHT30;54596;43.216;27.904;2023-05-10T15:20:38;12.91;72.02
67799;SHT30;54596;43.216;27.904;2023-05-10T15:23:03;12.87;71.67
67799;SHT30;54596;43.216;27.904;2023-05-10T15:25:29;12.81;71.38
67799;SHT30;54596;43.216;27.904;2023-05-10T15:27:54;12.86;71.90
67799;SHT30;54596;43.216;27.904;2023-05-10T15:30:20;12.86;72.50
67799;SHT30;54596;43.216;27.904;2023-05-10T15:32:46;12.83;73.30
67799;SHT30;54596;43.216;27.904;2023-05-10T15:35:11;12.91;73.09
67799;SHT30;54596;43.216;27.904;2023-05-10T15:37:37;12.95;72.79
67799;SHT30;54596;43.216;27.904;2023-05-10T15:40:03;12.79;73.45
67799;SHT30;54596;43.216;27.904;2023-05-10T15:42:30;12.77;73.83
67799;SHT30;54596;43.216;27.904;2023-05-10T15:44:57;12.72;72.95
67799;SHT30;54596;43.216;27.904;2023-05-10T15:47:23;12.70;72.43
67799;SHT30;54596;43.216;27.904;2023-05-10T15:49:49;12.66;73.23
67799;SHT30;54596;43.216;27.904;2023-05-10T15:52:14;12.66;73.56
67799;SHT30;54596;43.216;27.904;2023-05-10T15:54:41;12.63;73.67
67799;SHT30;54596;43.216;27.904;2023-05-10T15:57:06;12.62;73.45
67799;SHT30;54596;43.216;27.904;2023-05-10T15:59:32;12.69;73.34